This demonstration page uses our WeatherBlox Daily Observations layout. Learn more.

41.55636, -103.73856

Hourly Observations for August 22, 2018

Temp ( °F °C ) Dew Point ( °F °C ) Humidity (%) Winds ( mph kmh ) Pressure ( in mb ) Visibility ( mi km ) Precip ( " mm )
12:58 am 00:58 Cloudy 55 12.5 51 10.6 88 88 SSE 17 28 30.24 1024 10 16.09344 0 0
1:58 am 01:58 Mostly Cloudy 54 12.4 51 10.4 88 88 SSE 14 22 30.24 1024 10 16.09344 0 0
2:58 am 02:58 Mostly Cloudy 54 12.2 51 10.6 90 90 S 14 22 30.21 1023 8 12.874752 0 0
3:58 am 03:58 Cloudy 54 12.3 51 10.6 89 89 S 10 17 30.21 1023 9 14.484096 0 0
4:58 am 04:58 Cloudy 54 12.3 51 10.7 90 90 S 9 15 30.21 1023 9 14.484096 0 0
5:58 am 05:58 Cloudy 54 12.2 51 10.8 91 91 S 8 13 30.21 1023 7 11.265408 0 0
6:58 am 06:58 Cloudy with Light Drizzle 54 12.3 52 11 92 92 S 8 13 30.24 1024 5 8.04672 0 0
7:58 am 07:58 Cloudy with Mist and Fog 55 12.5 53 11.7 95 95 S 8 13 30.24 1024 2.5 4.02336 0 0
8:58 am 08:58 Mostly Cloudy with Mist and Fog 55 12.7 54 12 96 96 S 10 17 30.24 1024 5 8.04672 0 0
9:58 am 09:58 Mostly Cloudy with Mist and Fog 56 13.1 55 12.6 97 97 S 10 17 30.24 1024 5 8.04672 0 0
11:58 am 11:58 Cloudy 59 15.1 56 13.5 90 90 S 12 19 30.21 1023 8 12.874752 0 0
12:58 pm 12:58 Cloudy 61 16.2 57 13.9 86 86 SSW 10 17 30.18 1022 10 16.09344 0 0
1:58 pm 13:58 Cloudy 66 18.8 58 14.5 76 76 SSW 8 13 30.12 1020 10 16.09344 0 0
2:58 pm 14:58 Mostly Sunny 71 21.8 59 14.8 65 65 S 8 13 30.09 1019 10 16.09344 0 0
3:58 pm 15:58 Mostly Sunny 75 23.7 57 14.1 55 55 SSE 12 19 30.03 1017 10 16.09344 0 0
4:58 pm 16:58 Sunny 75 24.1 55 12.6 49 49 S 15 24 30 1016 10 16.09344 0 0
5:58 pm 17:58 Sunny 74 23.4 57 13.8 55 55 SSE 15 24 30 1016 10 16.09344 0 0
6:58 pm 18:58 Sunny 70 21.1 58 14.3 65 65 SSE 13 20 30 1016 10 16.09344 0 0
7:58 pm 19:58 Mostly Cloudy 66 18.7 59 14.8 78 78 SSE 15 24 30 1016 10 16.09344 0 0
8:58 pm 20:58 Clear 63 17.3 58 14.5 84 84 SSE 15 24 30.03 1017 10 16.09344 0 0
9:58 pm 21:58 Cloudy 63 17.1 59 14.8 86 86 S 10 17 30.06 1018 10 16.09344 0 0
10:58 pm 22:58 Cloudy 63 17 59 15 88 88 SSW 9 15 29.94 1014 10 16.09344 0 0
11:58 pm 23:58 Mostly Cloudy 62 16.5 59 15 91 91 SW 8 13 30.03 1017 10 16.09344 0 0

Powered by AerisWeather